Topeka, KS

12:47 PM CDT on August 30, 2014 (GMT -0500)
Elmhurst | Change Station
CLOSE
Current Station
Personal Weather Station
Location: Topeka, KS
Elevation: 953 ft
Nearby Weather Stations

Elev 953 ft 39.05 °N, 95.70 °W | Updated 2 minutes ago

Clear
Clear
90.4 °F
Feels Like 94 °F
N
1.0
Wind Variable Wind from North

Today
High -- | Low -- °F
--% Chance of Precip.
Yesterday
High -- | Low -- °F
Precip. -- in
6:49 AM 7:56 PM
Waxing Crescent, 23% visible
Pressure 29.92 in
Visibility 10.0 miles
Clouds Clear
Heat Index 94 °F
Dew Point 68 °F
Humidity 48%
Rainfall 0.00 in
Snow Depth Not available.
UV 8 out of 12
Pollen 10.30 out of 12
Air Quality Not available.
Flu Activity Not available.
METAR KTOP 301653Z 00000KT 10SM CLR 28/21 A2995 RMK AO2 SLP131 T02830206

More Conditions Fewer Conditions

Pressure 29.92 in
Visibility 10.0 miles
Clouds Clear
Heat Index 94 °F
Dew Point 68 °F
Humidity 48%
Rainfall 0.00 in
Snow Depth Not available.
UV 8 out of 12
Pollen 10.30 out of 12
Air Quality Not available.
Flu Activity Not available.
METAR KTOP 301653Z 00000KT 10SM CLR 28/21 A2995 RMK AO2 SLP131 T02830206

More Conditions Fewer Conditions

10-Day Weather Forecast

Almanac

Astronomy

Aug. 30, 2014 Rise Set
Actual Time 6:49 AM CDT 7:56 PM CDT
Civil Twilight 6:22 AM CDT 8:23 PM CDT
Nautical Twilight 5:49 AM CDT 8:56 PM CDT
Astronomical Twilight 5:15 AM CDT 9:30 PM CDT
Moon 11:35 AM CDT 10:33 PM CDT
Length of Visible Light 14h 01m
Length of Day
13h 06m
Tomorrow will be 2m 26s shorter.
Waxing Crescent, 23% of the Moon is Illuminated
Today
Waxing Crescent
Sep 2
First Quarter
Sep 8
Full
Sep 15
Last Quarter
Sep 24
New

Today's Extremes

State Highs State Lows

Community

WunderPhotos

Upload Photos

1,748,581 photos uploaded!

WunderBlogs® & News

Nearby

Snow Depth

Station Depth Elevation
No new snow has been reported.

Earthquake Activity

City Distance Mag. Time & Date
No recent earthquake activity has been reported nearby.
Minimum magnitude displayed is 2.5.

Coastal Water Temperatures

Place Temperature
No Stations Reporting

Nearby Weather Stations